Terminal Aerodrome Forecast
Issued by NWS Charleston, WV

Current Version | Previous Version | Graphics & Text | Print | Product List | Glossary On
Versions: 1 2 3 4 5 6 7 8 9 10 11 12 13 14 15 16 17 18 19 20 21 22 23 24 25
000
FTUS41 KRLX 171502 AAA
TAFCRW
TAF AMD
KCRW 171502Z 1715/1812 19007KT 6SM -SHRA SCT025 BKN035 OVC060
     FM171800 22011G17KT P6SM OVC035
     FM172000 22010G16KT 5SM -SHRA OVC035
     FM180000 25008KT P6SM VCSH OVC025
     FM180300 25006KT P6SM BKN015=

USA.gov is the U.S. government's official web portal to all federal, state and local government web resources and services.